sensor_id;sensor_type;location;lat;lon;timestamp;P1;durP1;ratioP1;P2;durP2;ratioP2
16504;SDS011;8365;51.030;4.696;2023-09-19T00:00:26;8.40;;;3.00;;
16504;SDS011;8365;51.030;4.696;2023-09-19T00:02:59;10.97;;;3.13;;
16504;SDS011;8365;51.030;4.696;2023-09-19T00:05:29;12.00;;;3.40;;
16504;SDS011;8365;51.030;4.696;2023-09-19T00:08:04;9.97;;;3.40;;
16504;SDS011;8365;51.030;4.696;2023-09-19T00:10:35;10.03;;;3.13;;
16504;SDS011;8365;51.030;4.696;2023-09-19T00:13:06;10.50;;;3.40;;
16504;SDS011;8365;51.030;4.696;2023-09-19T00:15:39;10.17;;;3.00;;
16504;SDS011;8365;51.030;4.696;2023-09-19T00:18:18;10.07;;;3.13;;
16504;SDS011;8365;51.030;4.696;2023-09-19T00:21:02;8.37;;;2.80;;
16504;SDS011;8365;51.030;4.696;2023-09-19T00:23:34;9.47;;;3.20;;
16504;SDS011;8365;51.030;4.696;2023-09-19T00:26:05;9.67;;;2.83;;
16504;SDS011;8365;51.030;4.696;2023-09-19T00:28:36;8.83;;;3.30;;
16504;SDS011;8365;51.030;4.696;2023-09-19T00:31:10;7.67;;;3.00;;
16504;SDS011;8365;51.030;4.696;2023-09-19T00:33:40;5.83;;;2.67;;
16504;SDS011;8365;51.030;4.696;2023-09-19T00:36:13;7.93;;;2.60;;
16504;SDS011;8365;51.030;4.696;2023-09-19T00:38:44;6.80;;;2.67;;
16504;SDS011;8365;51.030;4.696;2023-09-19T00:41:16;6.30;;;3.03;;
16504;SDS011;8365;51.030;4.696;2023-09-19T00:43:47;7.80;;;2.97;;
16504;SDS011;8365;51.030;4.696;2023-09-19T00:46:17;12.40;;;2.90;;
16504;SDS011;8365;51.030;4.696;2023-09-19T00:48:48;8.50;;;3.03;;
16504;SDS011;8365;51.030;4.696;2023-09-19T00:51:19;8.33;;;3.10;;
16504;SDS011;8365;51.030;4.696;2023-09-19T00:53:51;6.17;;;2.90;;
16504;SDS011;8365;51.030;4.696;2023-09-19T00:56:22;8.40;;;2.97;;
16504;SDS011;8365;51.030;4.696;2023-09-19T00:58:55;11.07;;;3.43;;
16504;SDS011;8365;51.030;4.696;2023-09-19T01:01:27;8.27;;;2.87;;
16504;SDS011;8365;51.030;4.696;2023-09-19T01:03:57;9.83;;;2.83;;
16504;SDS011;8365;51.030;4.696;2023-09-19T01:06:28;10.70;;;2.83;;
16504;SDS011;8365;51.030;4.696;2023-09-19T01:09:01;8.73;;;3.20;;
16504;SDS011;8365;51.030;4.696;2023-09-19T01:11:36;8.00;;;3.40;;
16504;SDS011;8365;51.030;4.696;2023-09-19T01:16:50;9.17;;;3.17;;
16504;SDS011;8365;51.030;4.696;2023-09-19T01:25:07;9.83;;;3.40;;
16504;SDS011;8365;51.030;4.696;2023-09-19T01:31:17;10.17;;;3.30;;
16504;SDS011;8365;51.030;4.696;2023-09-19T01:33:59;7.70;;;2.87;;
16504;SDS011;8365;51.030;4.696;2023-09-19T01:36:32;10.73;;;3.10;;
16504;SDS011;8365;51.030;4.696;2023-09-19T01:39:07;9.90;;;3.07;;
16504;SDS011;8365;51.030;4.696;2023-09-19T01:42:02;13.77;;;3.53;;
16504;SDS011;8365;51.030;4.696;2023-09-19T01:47:32;6.97;;;3.20;;
16504;SDS011;8365;51.030;4.696;2023-09-19T01:50:23;7.93;;;3.10;;
16504;SDS011;8365;51.030;4.696;2023-09-19T01:53:07;6.90;;;3.17;;
16504;SDS011;8365;51.030;4.696;2023-09-19T01:55:46;7.63;;;2.90;;
16504;SDS011;8365;51.030;4.696;2023-09-19T02:01:24;6.73;;;3.13;;
16504;SDS011;8365;51.030;4.696;2023-09-19T02:03:56;9.17;;;3.20;;
16504;SDS011;8365;51.030;4.696;2023-09-19T02:06:28;11.27;;;3.00;;
16504;SDS011;8365;51.030;4.696;2023-09-19T02:08:58;6.90;;;3.20;;
16504;SDS011;8365;51.030;4.696;2023-09-19T02:11:29;9.33;;;2.90;;
16504;SDS011;8365;51.030;4.696;2023-09-19T02:14:00;9.87;;;3.60;;
16504;SDS011;8365;51.030;4.696;2023-09-19T02:16:31;8.97;;;3.20;;
16504;SDS011;8365;51.030;4.696;2023-09-19T02:19:01;8.23;;;2.83;;
16504;SDS011;8365;51.030;4.696;2023-09-19T02:21:35;7.13;;;3.00;;
16504;SDS011;8365;51.030;4.696;2023-09-19T02:24:06;9.07;;;3.00;;
16504;SDS011;8365;51.030;4.696;2023-09-19T02:26:38;6.37;;;2.60;;
16504;SDS011;8365;51.030;4.696;2023-09-19T02:29:08;9.30;;;3.43;;
16504;SDS011;8365;51.030;4.696;2023-09-19T02:31:42;7.23;;;3.03;;
16504;SDS011;8365;51.030;4.696;2023-09-19T02:34:13;9.50;;;3.10;;
16504;SDS011;8365;51.030;4.696;2023-09-19T02:36:46;11.43;;;3.20;;
16504;SDS011;8365;51.030;4.696;2023-09-19T02:39:17;10.07;;;3.07;;
16504;SDS011;8365;51.030;4.696;2023-09-19T02:41:47;11.40;;;3.20;;
16504;SDS011;8365;51.030;4.696;2023-09-19T02:44:18;8.23;;;3.27;;
16504;SDS011;8365;51.030;4.696;2023-09-19T02:46:50;10.23;;;3.10;;
16504;SDS011;8365;51.030;4.696;2023-09-19T02:49:20;11.33;;;3.20;;
16504;SDS011;8365;51.030;4.696;2023-09-19T02:51:51;8.67;;;3.23;;
16504;SDS011;8365;51.030;4.696;2023-09-19T02:54:21;10.53;;;3.27;;
16504;SDS011;8365;51.030;4.696;2023-09-19T02:56:53;10.17;;;3.17;;
16504;SDS011;8365;51.030;4.696;2023-09-19T02:59:23;13.70;;;3.70;;
16504;SDS011;8365;51.030;4.696;2023-09-19T03:01:55;11.83;;;3.20;;
16504;SDS011;8365;51.030;4.696;2023-09-19T03:04:25;10.57;;;3.80;;
16504;SDS011;8365;51.030;4.696;2023-09-19T03:06:57;8.70;;;3.20;;
16504;SDS011;8365;51.030;4.696;2023-09-19T03:09:30;11.33;;;3.40;;
16504;SDS011;8365;51.030;4.696;2023-09-19T03:12:01;9.00;;;3.37;;
16504;SDS011;8365;51.030;4.696;2023-09-19T03:14:34;9.57;;;3.60;;
16504;SDS011;8365;51.030;4.696;2023-09-19T03:17:05;8.60;;;3.33;;
16504;SDS011;8365;51.030;4.696;2023-09-19T03:19:35;10.93;;;3.27;;
16504;SDS011;8365;51.030;4.696;2023-09-19T03:22:09;7.07;;;3.13;;
16504;SDS011;8365;51.030;4.696;2023-09-19T03:24:40;9.80;;;2.93;;
16504;SDS011;8365;51.030;4.696;2023-09-19T03:27:11;12.43;;;3.47;;
16504;SDS011;8365;51.030;4.696;2023-09-19T03:29:46;9.80;;;3.30;;
16504;SDS011;8365;51.030;4.696;2023-09-19T03:32:19;10.27;;;3.27;;
16504;SDS011;8365;51.030;4.696;2023-09-19T03:34:49;9.57;;;3.40;;
16504;SDS011;8365;51.030;4.696;2023-09-19T03:37:20;11.17;;;3.07;;
16504;SDS011;8365;51.030;4.696;2023-09-19T03:39:50;13.43;;;3.73;;
16504;SDS011;8365;51.030;4.696;2023-09-19T03:42:21;10.53;;;3.10;;
16504;SDS011;8365;51.030;4.696;2023-09-19T03:44:55;9.70;;;3.00;;
16504;SDS011;8365;51.030;4.696;2023-09-19T03:47:26;10.30;;;3.43;;
16504;SDS011;8365;51.030;4.696;2023-09-19T03:49:56;10.13;;;3.40;;
16504;SDS011;8365;51.030;4.696;2023-09-19T03:52:26;6.73;;;3.00;;
16504;SDS011;8365;51.030;4.696;2023-09-19T03:54:57;8.67;;;2.90;;
16504;SDS011;8365;51.030;4.696;2023-09-19T03:57:28;6.10;;;3.13;;
16504;SDS011;8365;51.030;4.696;2023-09-19T03:59:58;8.40;;;3.53;;
16504;SDS011;8365;51.030;4.696;2023-09-19T04:02:28;8.00;;;3.00;;
16504;SDS011;8365;51.030;4.696;2023-09-19T04:05:03;6.37;;;2.50;;
16504;SDS011;8365;51.030;4.696;2023-09-19T04:07:33;9.70;;;3.10;;
16504;SDS011;8365;51.030;4.696;2023-09-19T04:10:04;8.70;;;2.80;;
16504;SDS011;8365;51.030;4.696;2023-09-19T04:12:36;9.63;;;3.30;;
16504;SDS011;8365;51.030;4.696;2023-09-19T04:15:06;6.70;;;2.83;;
16504;SDS011;8365;51.030;4.696;2023-09-19T04:17:38;6.23;;;2.63;;
16504;SDS011;8365;51.030;4.696;2023-09-19T04:20:08;7.13;;;2.77;;
16504;SDS011;8365;51.030;4.696;2023-09-19T04:22:42;12.50;;;3.43;;
16504;SDS011;8365;51.030;4.696;2023-09-19T04:25:12;10.93;;;3.30;;
16504;SDS011;8365;51.030;4.696;2023-09-19T04:27:43;8.60;;;3.20;;
16504;SDS011;8365;51.030;4.696;2023-09-19T04:30:14;10.77;;;3.50;;
16504;SDS011;8365;51.030;4.696;2023-09-19T04:32:45;10.70;;;3.33;;
16504;SDS011;8365;51.030;4.696;2023-09-19T04:35:20;9.93;;;3.00;;
16504;SDS011;8365;51.030;4.696;2023-09-19T04:37:51;9.47;;;3.50;;
16504;SDS011;8365;51.030;4.696;2023-09-19T04:40:21;10.10;;;3.00;;
16504;SDS011;8365;51.030;4.696;2023-09-19T04:42:53;8.93;;;3.50;;
16504;SDS011;8365;51.030;4.696;2023-09-19T04:45:27;8.93;;;3.53;;
16504;SDS011;8365;51.030;4.696;2023-09-19T04:47:59;9.17;;;3.20;;
16504;SDS011;8365;51.030;4.696;2023-09-19T04:50:29;12.40;;;3.40;;
16504;SDS011;8365;51.030;4.696;2023-09-19T04:53:00;9.47;;;3.60;;
16504;SDS011;8365;51.030;4.696;2023-09-19T04:55:31;10.47;;;3.23;;
16504;SDS011;8365;51.030;4.696;2023-09-19T04:58:03;10.73;;;3.30;;
16504;SDS011;8365;51.030;4.696;2023-09-19T05:00:34;8.80;;;3.70;;
16504;SDS011;8365;51.030;4.696;2023-09-19T05:03:05;8.67;;;3.13;;
16504;SDS011;8365;51.030;4.696;2023-09-19T05:05:36;7.47;;;2.70;;
16504;SDS011;8365;51.030;4.696;2023-09-19T05:08:08;13.00;;;3.67;;
16504;SDS011;8365;51.030;4.696;2023-09-19T05:10:39;8.53;;;3.23;;
16504;SDS011;8365;51.030;4.696;2023-09-19T05:13:10;6.70;;;3.03;;
16504;SDS011;8365;51.030;4.696;2023-09-19T05:15:42;9.70;;;3.87;;
16504;SDS011;8365;51.030;4.696;2023-09-19T05:18:12;7.77;;;3.23;;
16504;SDS011;8365;51.030;4.696;2023-09-19T05:20:42;12.03;;;3.40;;
16504;SDS011;8365;51.030;4.696;2023-09-19T05:23:13;12.70;;;3.47;;
16504;SDS011;8365;51.030;4.696;2023-09-19T05:25:44;11.77;;;3.40;;
16504;SDS011;8365;51.030;4.696;2023-09-19T05:28:14;9.50;;;3.00;;
16504;SDS011;8365;51.030;4.696;2023-09-19T05:30:45;10.47;;;3.23;;
16504;SDS011;8365;51.030;4.696;2023-09-19T05:33:17;9.00;;;3.00;;
16504;SDS011;8365;51.030;4.696;2023-09-19T05:35:50;12.87;;;3.30;;
16504;SDS011;8365;51.030;4.696;2023-09-19T05:38:23;9.33;;;3.40;;
16504;SDS011;8365;51.030;4.696;2023-09-19T05:40:56;10.70;;;3.47;;
16504;SDS011;8365;51.030;4.696;2023-09-19T05:43:26;9.23;;;3.20;;
16504;SDS011;8365;51.030;4.696;2023-09-19T05:45:59;12.23;;;3.77;;
16504;SDS011;8365;51.030;4.696;2023-09-19T05:48:30;10.40;;;3.00;;
16504;SDS011;8365;51.030;4.696;2023-09-19T05:51:03;10.67;;;3.17;;
16504;SDS011;8365;51.030;4.696;2023-09-19T05:53:33;14.80;;;3.63;;
16504;SDS011;8365;51.030;4.696;2023-09-19T05:56:04;8.90;;;3.30;;
16504;SDS011;8365;51.030;4.696;2023-09-19T05:58:34;11.13;;;3.30;;
16504;SDS011;8365;51.030;4.696;2023-09-19T06:01:05;7.70;;;2.93;;
16504;SDS011;8365;51.030;4.696;2023-09-19T06:03:37;15.07;;;3.60;;
16504;SDS011;8365;51.030;4.696;2023-09-19T06:06:07;11.20;;;3.43;;
16504;SDS011;8365;51.030;4.696;2023-09-19T06:08:39;12.17;;;3.57;;
16504;SDS011;8365;51.030;4.696;2023-09-19T06:11:09;8.97;;;3.10;;
16504;SDS011;8365;51.030;4.696;2023-09-19T06:13:40;9.60;;;3.30;;
16504;SDS011;8365;51.030;4.696;2023-09-19T06:16:11;10.80;;;3.70;;
16504;SDS011;8365;51.030;4.696;2023-09-19T06:18:41;13.57;;;3.00;;
16504;SDS011;8365;51.030;4.696;2023-09-19T06:21:12;13.07;;;3.30;;
16504;SDS011;8365;51.030;4.696;2023-09-19T06:23:42;12.07;;;3.40;;
16504;SDS011;8365;51.030;4.696;2023-09-19T06:26:13;12.70;;;3.40;;
16504;SDS011;8365;51.030;4.696;2023-09-19T06:28:47;11.33;;;3.80;;
16504;SDS011;8365;51.030;4.696;2023-09-19T06:31:17;19.67;;;4.40;;
16504;SDS011;8365;51.030;4.696;2023-09-19T06:33:48;9.73;;;3.40;;
16504;SDS011;8365;51.030;4.696;2023-09-19T06:36:19;19.93;;;4.37;;
16504;SDS011;8365;51.030;4.696;2023-09-19T06:38:50;10.73;;;3.27;;
16504;SDS011;8365;51.030;4.696;2023-09-19T06:41:21;9.70;;;3.40;;
16504;SDS011;8365;51.030;4.696;2023-09-19T06:43:54;12.93;;;3.43;;
16504;SDS011;8365;51.030;4.696;2023-09-19T06:46:25;14.20;;;3.23;;
16504;SDS011;8365;51.030;4.696;2023-09-19T06:48:55;9.13;;;3.13;;
16504;SDS011;8365;51.030;4.696;2023-09-19T06:51:28;9.43;;;3.20;;
16504;SDS011;8365;51.030;4.696;2023-09-19T06:54:00;9.17;;;3.20;;
16504;SDS011;8365;51.030;4.696;2023-09-19T06:56:32;10.40;;;3.17;;
16504;SDS011;8365;51.030;4.696;2023-09-19T06:59:03;10.63;;;3.53;;
16504;SDS011;8365;51.030;4.696;2023-09-19T07:01:36;8.97;;;3.13;;
16504;SDS011;8365;51.030;4.696;2023-09-19T07:04:07;11.47;;;2.97;;
16504;SDS011;8365;51.030;4.696;2023-09-19T07:06:38;7.00;;;2.70;;
16504;SDS011;8365;51.030;4.696;2023-09-19T07:09:10;9.40;;;3.50;;
16504;SDS011;8365;51.030;4.696;2023-09-19T07:11:40;7.27;;;2.90;;
16504;SDS011;8365;51.030;4.696;2023-09-19T07:14:11;8.70;;;3.20;;
16504;SDS011;8365;51.030;4.696;2023-09-19T07:16:41;7.57;;;3.43;;
16504;SDS011;8365;51.030;4.696;2023-09-19T07:19:14;14.33;;;3.70;;
16504;SDS011;8365;51.030;4.696;2023-09-19T07:21:45;7.27;;;2.97;;
16504;SDS011;8365;51.030;4.696;2023-09-19T07:24:17;12.80;;;3.47;;
16504;SDS011;8365;51.030;4.696;2023-09-19T07:26:47;12.60;;;3.27;;
16504;SDS011;8365;51.030;4.696;2023-09-19T07:29:18;10.97;;;3.43;;
16504;SDS011;8365;51.030;4.696;2023-09-19T07:31:49;9.80;;;3.40;;
16504;SDS011;8365;51.030;4.696;2023-09-19T07:34:19;10.90;;;3.47;;
16504;SDS011;8365;51.030;4.696;2023-09-19T07:36:53;9.13;;;3.00;;
16504;SDS011;8365;51.030;4.696;2023-09-19T07:39:23;8.90;;;3.37;;
16504;SDS011;8365;51.030;4.696;2023-09-19T07:41:54;10.70;;;3.43;;
16504;SDS011;8365;51.030;4.696;2023-09-19T07:44:24;8.47;;;2.97;;
16504;SDS011;8365;51.030;4.696;2023-09-19T07:46:55;12.00;;;3.23;;
16504;SDS011;8365;51.030;4.696;2023-09-19T07:49:26;9.23;;;3.00;;
16504;SDS011;8365;51.030;4.696;2023-09-19T07:51:57;8.60;;;3.33;;
16504;SDS011;8365;51.030;4.696;2023-09-19T07:54:29;7.70;;;3.00;;
16504;SDS011;8365;51.030;4.696;2023-09-19T07:57:05;11.07;;;3.57;;
16504;SDS011;8365;51.030;4.696;2023-09-19T07:59:36;10.30;;;3.67;;
16504;SDS011;8365;51.030;4.696;2023-09-19T08:02:10;11.37;;;3.63;;
16504;SDS011;8365;51.030;4.696;2023-09-19T08:04:45;9.67;;;3.03;;
16504;SDS011;8365;51.030;4.696;2023-09-19T08:07:16;12.00;;;3.37;;
16504;SDS011;8365;51.030;4.696;2023-09-19T08:09:49;13.33;;;3.50;;
16504;SDS011;8365;51.030;4.696;2023-09-19T08:12:19;9.53;;;3.60;;
16504;SDS011;8365;51.030;4.696;2023-09-19T08:14:54;10.25;;;3.55;;
16504;SDS011;8365;51.030;4.696;2023-09-19T08:17:25;8.43;;;2.80;;
16504;SDS011;8365;51.030;4.696;2023-09-19T08:19:58;11.73;;;3.70;;
16504;SDS011;8365;51.030;4.696;2023-09-19T08:22:28;9.80;;;3.13;;
16504;SDS011;8365;51.030;4.696;2023-09-19T08:24:59;11.68;;;3.53;;
16504;SDS011;8365;51.030;4.696;2023-09-19T08:27:29;6.22;;;2.95;;
16504;SDS011;8365;51.030;4.696;2023-09-19T08:30:00;8.30;;;3.38;;
16504;SDS011;8365;51.030;4.696;2023-09-19T08:32:32;9.65;;;3.20;;
16504;SDS011;8365;51.030;4.696;2023-09-19T08:35:03;12.25;;;3.60;;
16504;SDS011;8365;51.030;4.696;2023-09-19T08:37:34;7.20;;;2.90;;
16504;SDS011;8365;51.030;4.696;2023-09-19T08:40:04;11.95;;;3.80;;
16504;SDS011;8365;51.030;4.696;2023-09-19T08:42:51;9.20;;;3.85;;
16504;SDS011;8365;51.030;4.696;2023-09-19T08:45:25;8.57;;;3.17;;
16504;SDS011;8365;51.030;4.696;2023-09-19T08:56:21;9.98;;;3.60;;
16504;SDS011;8365;51.030;4.696;2023-09-19T08:58:53;13.88;;;4.00;;
16504;SDS011;8365;51.030;4.696;2023-09-19T09:01:29;7.88;;;3.13;;
16504;SDS011;8365;51.030;4.696;2023-09-19T09:04:02;7.28;;;2.85;;
16504;SDS011;8365;51.030;4.696;2023-09-19T09:06:33;9.32;;;3.03;;
16504;SDS011;8365;51.030;4.696;2023-09-19T09:09:04;7.72;;;3.30;;
16504;SDS011;8365;51.030;4.696;2023-09-19T09:11:35;9.95;;;3.10;;
16504;SDS011;8365;51.030;4.696;2023-09-19T09:14:09;11.50;;;3.53;;
16504;SDS011;8365;51.030;4.696;2023-09-19T09:16:41;8.77;;;3.17;;
16504;SDS011;8365;51.030;4.696;2023-09-19T09:19:11;10.88;;;3.05;;
16504;SDS011;8365;51.030;4.696;2023-09-19T09:21:43;11.90;;;3.28;;
16504;SDS011;8365;51.030;4.696;2023-09-19T09:24:27;9.95;;;2.80;;
16504;SDS011;8365;51.030;4.696;2023-09-19T09:27:04;6.95;;;2.90;;
16504;SDS011;8365;51.030;4.696;2023-09-19T09:29:45;9.35;;;2.88;;
16504;SDS011;8365;51.030;4.696;2023-09-19T09:34:59;4.70;;;2.38;;
16504;SDS011;8365;51.030;4.696;2023-09-19T09:37:30;7.25;;;3.00;;
16504;SDS011;8365;51.030;4.696;2023-09-19T09:40:02;6.85;;;3.10;;
16504;SDS011;8365;51.030;4.696;2023-09-19T09:42:45;7.95;;;3.08;;
16504;SDS011;8365;51.030;4.696;2023-09-19T09:45:23;8.65;;;3.20;;
16504;SDS011;8365;51.030;4.696;2023-09-19T09:48:03;10.10;;;2.92;;
16504;SDS011;8365;51.030;4.696;2023-09-19T09:50:47;7.15;;;2.63;;
16504;SDS011;8365;51.030;4.696;2023-09-19T09:53:28;10.50;;;3.10;;
16504;SDS011;8365;51.030;4.696;2023-09-19T09:56:06;6.97;;;2.55;;
16504;SDS011;8365;51.030;4.696;2023-09-19T09:58:50;5.38;;;2.67;;
16504;SDS011;8365;51.030;4.696;2023-09-19T10:01:26;10.20;;;2.83;;
16504;SDS011;8365;51.030;4.696;2023-09-19T10:04:01;6.88;;;2.47;;
16504;SDS011;8365;51.030;4.696;2023-09-19T10:06:40;8.57;;;2.72;;
16504;SDS011;8365;51.030;4.696;2023-09-19T10:09:17;7.07;;;2.60;;
16504;SDS011;8365;51.030;4.696;2023-09-19T10:12:03;8.00;;;2.60;;
16504;SDS011;8365;51.030;4.696;2023-09-19T10:14:38;6.53;;;2.50;;
16504;SDS011;8365;51.030;4.696;2023-09-19T10:17:13;8.05;;;2.45;;
16504;SDS011;8365;51.030;4.696;2023-09-19T10:19:55;7.55;;;2.85;;
16504;SDS011;8365;51.030;4.696;2023-09-19T10:22:28;4.63;;;2.15;;
16504;SDS011;8365;51.030;4.696;2023-09-19T10:25:02;4.63;;;2.53;;
16504;SDS011;8365;51.030;4.696;2023-09-19T10:27:37;5.32;;;2.20;;
16504;SDS011;8365;51.030;4.696;2023-09-19T10:30:09;5.68;;;2.47;;
16504;SDS011;8365;51.030;4.696;2023-09-19T10:32:43;4.72;;;2.10;;
16504;SDS011;8365;51.030;4.696;2023-09-19T10:35:16;6.07;;;2.15;;
16504;SDS011;8365;51.030;4.696;2023-09-19T10:37:47;6.63;;;2.65;;
16504;SDS011;8365;51.030;4.696;2023-09-19T10:40:21;4.05;;;2.50;;
16504;SDS011;8365;51.030;4.696;2023-09-19T10:43:01;6.05;;;2.35;;
16504;SDS011;8365;51.030;4.696;2023-09-19T10:45:35;5.97;;;2.10;;
16504;SDS011;8365;51.030;4.696;2023-09-19T10:48:08;7.45;;;2.38;;
16504;SDS011;8365;51.030;4.696;2023-09-19T10:50:46;6.90;;;2.03;;
16504;SDS011;8365;51.030;4.696;2023-09-19T10:53:20;6.90;;;2.20;;
16504;SDS011;8365;51.030;4.696;2023-09-19T10:55:54;7.10;;;2.10;;
16504;SDS011;8365;51.030;4.696;2023-09-19T10:58:28;4.47;;;2.20;;
16504;SDS011;8365;51.030;4.696;2023-09-19T11:01:04;6.30;;;2.28;;
16504;SDS011;8365;51.030;4.696;2023-09-19T11:03:45;5.18;;;2.03;;
16504;SDS011;8365;51.030;4.696;2023-09-19T11:06:18;2.95;;;1.80;;
16504;SDS011;8365;51.030;4.696;2023-09-19T11:08:53;4.38;;;1.90;;
16504;SDS011;8365;51.030;4.696;2023-09-19T11:11:45;4.78;;;1.98;;
16504;SDS011;8365;51.030;4.696;2023-09-19T11:30:38;6.53;;;1.50;;
16504;SDS011;8365;51.030;4.696;2023-09-19T11:36:10;6.53;;;1.63;;
16504;SDS011;8365;51.030;4.696;2023-09-19T11:43:54;4.85;;;1.60;;
16504;SDS011;8365;51.030;4.696;2023-09-19T11:46:34;3.03;;;1.40;;
16504;SDS011;8365;51.030;4.696;2023-09-19T11:49:08;2.72;;;1.40;;
16504;SDS011;8365;51.030;4.696;2023-09-19T11:52:00;3.42;;;1.65;;
16504;SDS011;8365;51.030;4.696;2023-09-19T11:54:37;2.33;;;1.35;;
16504;SDS011;8365;51.030;4.696;2023-09-19T11:57:11;4.90;;;1.40;;
16504;SDS011;8365;51.030;4.696;2023-09-19T11:59:50;5.43;;;1.63;;
16504;SDS011;8365;51.030;4.696;2023-09-19T12:02:39;11.52;;;1.60;;
16504;SDS011;8365;51.030;4.696;2023-09-19T12:05:14;3.70;;;1.40;;
16504;SDS011;8365;51.030;4.696;2023-09-19T12:07:47;3.97;;;1.63;;
16504;SDS011;8365;51.030;4.696;2023-09-19T12:10:18;2.75;;;1.73;;
16504;SDS011;8365;51.030;4.696;2023-09-19T12:12:51;4.32;;;1.58;;
16504;SDS011;8365;51.030;4.696;2023-09-19T12:15:23;6.13;;;1.70;;
16504;SDS011;8365;51.030;4.696;2023-09-19T12:17:58;5.85;;;1.75;;
16504;SDS011;8365;51.030;4.696;2023-09-19T12:20:44;3.13;;;1.70;;
16504;SDS011;8365;51.030;4.696;2023-09-19T12:23:17;4.57;;;1.75;;
16504;SDS011;8365;51.030;4.696;2023-09-19T12:25:49;2.72;;;1.60;;
16504;SDS011;8365;51.030;4.696;2023-09-19T12:28:25;3.15;;;1.40;;
16504;SDS011;8365;51.030;4.696;2023-09-19T12:30:57;2.67;;;1.50;;
16504;SDS011;8365;51.030;4.696;2023-09-19T12:33:37;4.95;;;1.60;;
16504;SDS011;8365;51.030;4.696;2023-09-19T12:36:19;5.88;;;1.65;;
16504;SDS011;8365;51.030;4.696;2023-09-19T12:38:58;4.43;;;1.98;;
16504;SDS011;8365;51.030;4.696;2023-09-19T12:41:38;3.72;;;1.95;;
16504;SDS011;8365;51.030;4.696;2023-09-19T12:44:10;3.13;;;1.58;;
16504;SDS011;8365;51.030;4.696;2023-09-19T12:46:43;4.40;;;1.70;;
16504;SDS011;8365;51.030;4.696;2023-09-19T12:49:18;1.95;;;1.38;;
16504;SDS011;8365;51.030;4.696;2023-09-19T12:51:49;4.50;;;1.88;;
16504;SDS011;8365;51.030;4.696;2023-09-19T12:54:25;1.80;;;1.38;;
16504;SDS011;8365;51.030;4.696;2023-09-19T12:57:07;3.45;;;1.70;;
16504;SDS011;8365;51.030;4.696;2023-09-19T12:59:37;2.55;;;1.40;;
16504;SDS011;8365;51.030;4.696;2023-09-19T13:02:08;4.72;;;1.42;;
16504;SDS011;8365;51.030;4.696;2023-09-19T13:04:51;4.07;;;1.70;;
16504;SDS011;8365;51.030;4.696;2023-09-19T13:07:42;4.63;;;1.80;;
16504;SDS011;8365;51.030;4.696;2023-09-19T13:10:17;3.35;;;1.42;;
16504;SDS011;8365;51.030;4.696;2023-09-19T13:12:50;4.20;;;1.77;;
16504;SDS011;8365;51.030;4.696;2023-09-19T13:15:24;3.97;;;1.75;;
16504;SDS011;8365;51.030;4.696;2023-09-19T13:17:57;4.90;;;1.75;;
16504;SDS011;8365;51.030;4.696;2023-09-19T13:20:31;3.30;;;1.58;;
16504;SDS011;8365;51.030;4.696;2023-09-19T13:23:25;2.38;;;1.58;;
16504;SDS011;8365;51.030;4.696;2023-09-19T13:25:56;5.68;;;2.08;;
16504;SDS011;8365;51.030;4.696;2023-09-19T13:28:29;3.10;;;1.70;;
16504;SDS011;8365;51.030;4.696;2023-09-19T13:31:00;5.32;;;1.80;;
16504;SDS011;8365;51.030;4.696;2023-09-19T13:33:31;4.70;;;1.60;;
16504;SDS011;8365;51.030;4.696;2023-09-19T13:36:02;3.83;;;1.60;;
16504;SDS011;8365;51.030;4.696;2023-09-19T13:38:34;4.03;;;1.90;;
16504;SDS011;8365;51.030;4.696;2023-09-19T13:41:05;5.40;;;1.88;;
16504;SDS011;8365;51.030;4.696;2023-09-19T13:43:39;5.53;;;1.85;;
16504;SDS011;8365;51.030;4.696;2023-09-19T13:46:09;5.07;;;2.00;;
16504;SDS011;8365;51.030;4.696;2023-09-19T13:48:45;4.85;;;2.03;;
16504;SDS011;8365;51.030;4.696;2023-09-19T13:51:16;3.58;;;1.70;;
16504;SDS011;8365;51.030;4.696;2023-09-19T13:53:49;6.70;;;1.67;;
16504;SDS011;8365;51.030;4.696;2023-09-19T13:56:22;3.33;;;1.50;;
16504;SDS011;8365;51.030;4.696;2023-09-19T13:58:58;2.60;;;1.50;;
16504;SDS011;8365;51.030;4.696;2023-09-19T14:01:28;5.68;;;1.92;;
16504;SDS011;8365;51.030;4.696;2023-09-19T14:03:58;3.70;;;1.70;;
16504;SDS011;8365;51.030;4.696;2023-09-19T14:06:32;4.72;;;1.58;;
16504;SDS011;8365;51.030;4.696;2023-09-19T14:09:03;4.40;;;2.00;;
16504;SDS011;8365;51.030;4.696;2023-09-19T14:11:34;4.15;;;1.67;;
16504;SDS011;8365;51.030;4.696;2023-09-19T14:14:04;4.45;;;1.80;;
16504;SDS011;8365;51.030;4.696;2023-09-19T14:16:35;4.22;;;1.60;;
16504;SDS011;8365;51.030;4.696;2023-09-19T14:19:07;5.05;;;1.70;;
16504;SDS011;8365;51.030;4.696;2023-09-19T14:21:38;3.50;;;1.80;;
16504;SDS011;8365;51.030;4.696;2023-09-19T14:24:09;4.97;;;2.03;;
16504;SDS011;8365;51.030;4.696;2023-09-19T14:26:39;5.10;;;2.15;;
16504;SDS011;8365;51.030;4.696;2023-09-19T14:29:13;2.92;;;1.70;;
16504;SDS011;8365;51.030;4.696;2023-09-19T14:31:44;3.78;;;1.80;;
16504;SDS011;8365;51.030;4.696;2023-09-19T14:34:14;3.88;;;1.73;;
16504;SDS011;8365;51.030;4.696;2023-09-19T14:36:47;3.97;;;1.80;;
16504;SDS011;8365;51.030;4.696;2023-09-19T14:39:18;5.70;;;2.17;;
16504;SDS011;8365;51.030;4.696;2023-09-19T14:41:49;4.60;;;1.83;;
16504;SDS011;8365;51.030;4.696;2023-09-19T14:44:20;5.72;;;1.92;;
16504;SDS011;8365;51.030;4.696;2023-09-19T14:46:50;6.22;;;2.10;;
16504;SDS011;8365;51.030;4.696;2023-09-19T14:49:24;5.68;;;1.90;;
16504;SDS011;8365;51.030;4.696;2023-09-19T14:51:55;4.28;;;1.70;;
16504;SDS011;8365;51.030;4.696;2023-09-19T14:54:25;4.28;;;3.33;;
16504;SDS011;8365;51.030;4.696;2023-09-19T14:56:59;3.35;;;1.75;;
16504;SDS011;8365;51.030;4.696;2023-09-19T14:59:37;6.07;;;1.80;;
16504;SDS011;8365;51.030;4.696;2023-09-19T15:02:08;6.47;;;2.38;;
16504;SDS011;8365;51.030;4.696;2023-09-19T15:04:41;3.88;;;1.90;;
16504;SDS011;8365;51.030;4.696;2023-09-19T15:07:14;5.28;;;1.70;;
16504;SDS011;8365;51.030;4.696;2023-09-19T15:09:45;5.32;;;2.10;;
16504;SDS011;8365;51.030;4.696;2023-09-19T15:12:15;4.05;;;1.85;;
16504;SDS011;8365;51.030;4.696;2023-09-19T15:14:47;4.13;;;2.05;;
16504;SDS011;8365;51.030;4.696;2023-09-19T15:17:17;3.60;;;1.95;;
16504;SDS011;8365;51.030;4.696;2023-09-19T15:19:49;6.55;;;2.00;;
16504;SDS011;8365;51.030;4.696;2023-09-19T15:22:20;3.28;;;2.17;;
16504;SDS011;8365;51.030;4.696;2023-09-19T15:24:50;2.90;;;1.90;;
16504;SDS011;8365;51.030;4.696;2023-09-19T15:27:21;5.22;;;1.98;;
16504;SDS011;8365;51.030;4.696;2023-09-19T15:29:52;6.85;;;2.25;;
16504;SDS011;8365;51.030;4.696;2023-09-19T15:32:23;4.03;;;2.00;;
16504;SDS011;8365;51.030;4.696;2023-09-19T15:34:53;5.45;;;1.98;;
16504;SDS011;8365;51.030;4.696;2023-09-19T15:37:24;4.68;;;2.10;;
16504;SDS011;8365;51.030;4.696;2023-09-19T15:39:57;3.80;;;2.13;;
16504;SDS011;8365;51.030;4.696;2023-09-19T15:42:27;4.25;;;2.00;;
16504;SDS011;8365;51.030;4.696;2023-09-19T15:44:58;6.50;;;2.20;;
16504;SDS011;8365;51.030;4.696;2023-09-19T15:47:28;4.03;;;2.10;;
16504;SDS011;8365;51.030;4.696;2023-09-19T15:49:59;6.65;;;2.60;;
16504;SDS011;8365;51.030;4.696;2023-09-19T15:52:29;7.03;;;2.30;;
16504;SDS011;8365;51.030;4.696;2023-09-19T15:55:00;4.32;;;2.30;;
16504;SDS011;8365;51.030;4.696;2023-09-19T15:57:34;5.32;;;2.33;;
16504;SDS011;8365;51.030;4.696;2023-09-19T16:00:06;5.60;;;2.47;;
16504;SDS011;8365;51.030;4.696;2023-09-19T16:02:44;4.65;;;2.75;;
16504;SDS011;8365;51.030;4.696;2023-09-19T16:05:15;4.65;;;2.15;;
16504;SDS011;8365;51.030;4.696;2023-09-19T16:07:46;3.30;;;2.00;;
16504;SDS011;8365;51.030;4.696;2023-09-19T16:10:16;4.22;;;2.28;;
16504;SDS011;8365;51.030;4.696;2023-09-19T16:12:47;4.95;;;2.50;;
16504;SDS011;8365;51.030;4.696;2023-09-19T16:15:17;4.50;;;2.40;;
16504;SDS011;8365;51.030;4.696;2023-09-19T16:17:48;5.80;;;2.38;;
16504;SDS011;8365;51.030;4.696;2023-09-19T16:20:18;4.53;;;2.28;;
16504;SDS011;8365;51.030;4.696;2023-09-19T16:22:49;5.47;;;2.30;;
16504;SDS011;8365;51.030;4.696;2023-09-19T16:25:19;5.05;;;2.28;;